Time;durP1;ratioP1;P1;durP2;ratioP2;P2;SDS_P1;SDS_P2;PMS_P1;PMS_P2;Temp;Humidity;BMP_temperature;BMP_pressure;BME280_temperature;BME280_humidity;BME280_pressure;Samples;Min_cycle;Max_cycle;Signal;HPM_P1;HPM_P2
2021/11/02 00:01:27;;;;;;;0.50;0.30;;;23.70;42.50;;;;;;5080618;28;20391;-87
2021/11/02 00:03:53;;;;;;;0.73;0.40;;;23.70;42.60;;;;;;5054299;28;20475;-79
2021/11/02 00:06:19;;;;;;;0.77;0.40;;;23.70;42.60;;;;;;5072218;28;20395;-62
2021/11/02 00:08:45;;;;;;;1.20;0.40;;;23.70;42.70;;;;;;5054695;28;20465;-63
2021/11/02 00:11:11;;;;;;;0.73;0.40;;;23.70;42.60;;;;;;5071621;28;20395;-62
2021/11/02 00:13:39;;;;;;;0.73;0.47;;;23.70;42.60;;;;;;5071271;28;20391;-91
2021/11/02 00:16:07;;;;;;;1.58;0.40;;;23.70;42.50;;;;;;5071843;28;20416;-89
2021/11/02 00:18:34;;;;;;;1.00;0.35;;;23.70;42.60;;;;;;5071793;28;20768;-89
2021/11/02 00:21:01;;;;;;;0.70;0.30;;;23.60;42.60;;;;;;5071403;28;20502;-62
2021/11/02 00:23:34;;;;;;;0.35;0.20;;;23.70;42.60;;;;;;5071757;28;20379;-90
2021/11/02 00:26:00;;;;;;;0.77;0.30;;;23.60;42.40;;;;;;5072332;28;20929;-89
2021/11/02 00:28:26;;;;;;;1.00;0.30;;;23.60;42.50;;;;;;5072330;28;20479;-88
2021/11/02 00:30:51;;;;;;;0.40;0.20;;;23.60;42.60;;;;;;5057275;28;20402;-61
2021/11/02 00:33:17;;;;;;;1.00;0.30;;;23.60;42.50;;;;;;5083810;28;20468;-89
2021/11/02 00:35:43;;;;;;;0.47;0.25;;;23.50;42.50;;;;;;5078985;28;20464;-79
2021/11/02 00:38:08;;;;;;;0.57;0.30;;;23.50;42.30;;;;;;5079073;28;20392;-89
2021/11/02 00:40:36;;;;;;;0.45;0.20;;;23.50;42.30;;;;;;5082323;28;20393;-88
2021/11/02 00:43:04;;;;;;;0.40;0.20;;;23.60;42.20;;;;;;5084112;28;20413;-89
2021/11/02 00:45:34;;;;;;;0.50;0.20;;;23.50;42.10;;;;;;5089115;28;20449;-89
2021/11/02 00:48:04;;;;;;;0.55;0.20;;;23.50;41.90;;;;;;5083792;28;20378;-89
2021/11/02 00:50:34;;;;;;;0.50;0.30;;;23.50;42.10;;;;;;5076461;28;20382;-87
2021/11/02 00:53:00;;;;;;;0.40;0.20;;;23.60;41.90;;;;;;5071653;28;20531;-75
2021/11/02 00:55:26;;;;;;;0.50;0.20;;;23.60;42.10;;;;;;5074833;28;20422;-88
2021/11/02 00:57:52;;;;;;;1.00;0.20;;;23.50;42.10;;;;;;5097804;28;20395;-88
2021/11/02 01:00:19;;;;;;;0.60;0.20;;;23.50;42.10;;;;;;5082706;28;20398;-89
2021/11/02 01:02:45;;;;;;;0.50;0.30;;;23.50;42.10;;;;;;5074837;28;20398;-88
2021/11/02 01:05:11;;;;;;;0.60;0.30;;;23.50;42.10;;;;;;5069967;28;20394;-61
2021/11/02 01:07:37;;;;;;;0.63;0.30;;;23.50;42.10;;;;;;5095209;28;20384;-90
2021/11/02 01:10:05;;;;;;;0.55;0.20;;;23.50;42.10;;;;;;5095245;28;20390;-88
2021/11/02 01:12:31;;;;;;;0.60;0.20;;;23.50;42.10;;;;;;5095346;28;20425;-88
2021/11/02 01:14:58;;;;;;;0.80;0.30;;;23.50;42.20;;;;;;5094869;28;20434;-90
2021/11/02 01:17:23;;;;;;;0.73;0.20;;;23.50;42.20;;;;;;5094337;28;20886;-62
2021/11/02 01:19:49;;;;;;;0.50;0.30;;;23.50;42.20;;;;;;5094856;28;20378;-61
2021/11/02 01:22:15;;;;;;;0.60;0.20;;;23.50;42.20;;;;;;5059848;28;20429;-61
2021/11/02 01:24:41;;;;;;;0.50;0.28;;;23.50;42.20;;;;;;5094741;28;20890;-61
2021/11/02 01:27:06;;;;;;;0.60;0.30;;;23.50;42.10;;;;;;5094769;28;20401;-61
2021/11/02 01:29:32;;;;;;;0.50;0.20;;;23.50;42.10;;;;;;5094207;28;20389;-61
2021/11/02 01:31:57;;;;;;;0.50;0.20;;;23.50;42.80;;;;;;5094584;28;20386;-61
2021/11/02 01:34:23;;;;;;;0.60;0.20;;;23.40;42.10;;;;;;5094658;28;20382;-61
2021/11/02 01:36:49;;;;;;;0.60;0.20;;;23.50;42.10;;;;;;5094581;28;20759;-61
2021/11/02 01:39:15;;;;;;;0.43;0.20;;;23.40;42.00;;;;;;5094475;28;20394;-61
2021/11/02 01:41:40;;;;;;;0.50;0.20;;;23.40;42.00;;;;;;5093947;28;20405;-62
2021/11/02 01:44:06;;;;;;;0.50;0.20;;;23.40;41.90;;;;;;5094569;28;20460;-62
2021/11/02 01:46:34;;;;;;;0.40;0.20;;;23.40;41.90;;;;;;5094410;28;20401;-62
2021/11/02 01:49:02;;;;;;;0.65;0.20;;;23.40;42.00;;;;;;5094284;28;20396;-62
2021/11/02 01:51:30;;;;;;;0.80;0.20;;;23.40;41.90;;;;;;5093806;28;20802;-62
2021/11/02 01:53:56;;;;;;;0.10;0.10;;;23.40;41.90;;;;;;5094290;28;20818;-89
2021/11/02 01:56:22;;;;;;;0.40;0.20;;;23.40;41.80;;;;;;5093681;28;20425;-61
2021/11/02 01:58:52;;;;;;;0.43;0.22;;;23.40;41.80;;;;;;5094340;28;20920;-61
2021/11/02 02:01:39;;;;;;;0.23;0.20;;;23.40;41.70;;;;;;5093832;28;20414;-62
2021/11/02 02:04:12;;;;;;;0.22;0.20;;;23.40;41.70;;;;;;5094169;28;20421;-61
2021/11/02 02:07:16;;;;;;;0.20;0.10;;;23.40;41.70;;;;;;5094251;28;20416;-61
2021/11/02 02:09:48;;;;;;;0.30;0.20;;;23.40;41.80;;;;;;5062423;28;20410;-61
2021/11/02 02:12:32;;;;;;;0.30;0.13;;;23.40;41.90;;;;;;5093993;28;20394;-62
2021/11/02 02:15:11;;;;;;;0.40;0.10;;;23.40;41.80;;;;;;5075209;28;20409;-61
2021/11/02 02:17:44;;;;;;;0.88;0.28;;;23.40;41.80;;;;;;5075557;28;20402;-90
2021/11/02 02:20:21;;;;;;;0.68;0.20;;;23.40;41.80;;;;;;5093707;28;20386;-61
2021/11/02 02:23:08;;;;;;;0.50;0.10;;;23.40;41.90;;;;;;5093884;28;20386;-61
2021/11/02 02:25:42;;;;;;;0.25;0.15;;;23.30;41.80;;;;;;5093451;28;20382;-61
2021/11/02 02:28:20;;;;;;;0.28;0.22;;;23.40;41.80;;;;;;5093440;28;20468;-61
2021/11/02 02:31:01;;;;;;;1.25;0.17;;;23.40;41.80;;;;;;5093539;28;20393;-61
2021/11/02 02:33:30;;;;;;;0.22;0.10;;;23.40;41.90;;;;;;5075055;28;20910;-62
2021/11/02 02:35:57;;;;;;;0.20;0.10;;;23.30;41.80;;;;;;5093297;28;20907;-61
2021/11/02 02:38:25;;;;;;;0.28;0.20;;;23.30;41.90;;;;;;5093401;28;20378;-62
2021/11/02 02:40:52;;;;;;;0.30;0.10;;;23.30;41.80;;;;;;5092965;28;20389;-75
2021/11/02 02:43:20;;;;;;;0.50;0.20;;;23.30;41.80;;;;;;5093030;28;20713;-61
2021/11/02 02:45:48;;;;;;;0.30;0.20;;;23.30;41.90;;;;;;5093202;28;20456;-61
2021/11/02 02:48:19;;;;;;;0.40;0.20;;;23.30;41.90;;;;;;5093208;28;20477;-61
2021/11/02 02:50:50;;;;;;;0.83;0.20;;;23.30;41.90;;;;;;5093273;28;20730;-89
2021/11/02 02:53:17;;;;;;;0.45;0.20;;;23.30;41.70;;;;;;5093024;28;20417;-79
2021/11/02 02:55:44;;;;;;;0.30;0.10;;;23.30;41.90;;;;;;5092551;28;20413;-61
2021/11/02 02:58:11;;;;;;;0.20;0.10;;;23.30;41.80;;;;;;5093106;28;20473;-61
2021/11/02 03:00:39;;;;;;;0.30;0.15;;;23.30;41.70;;;;;;5093178;28;20417;-61
2021/11/02 03:03:05;;;;;;;0.30;0.17;;;23.30;41.70;;;;;;5092558;28;20382;-61
2021/11/02 03:05:31;;;;;;;0.47;0.20;;;23.30;41.70;;;;;;5092453;28;20943;-88
2021/11/02 03:07:57;;;;;;;0.55;0.20;;;23.30;41.60;;;;;;5092874;28;20748;-61
2021/11/02 03:10:24;;;;;;;0.38;0.20;;;23.30;41.60;;;;;;5092947;28;20418;-62
2021/11/02 03:12:51;;;;;;;0.20;0.10;;;23.30;41.70;;;;;;5092741;28;20473;-61
2021/11/02 03:16:03;;;;;;;0.40;0.20;;;23.30;41.70;;;;;;5092697;28;20560;-61
2021/11/02 03:18:55;;;;;;;0.20;0.13;;;23.30;41.70;;;;;;5092305;28;20386;-87
2021/11/02 03:52:13;;;;;;;0.20;0.13;;;23.20;41.60;;;;;;5092827;28;20385;-61
2021/11/02 04:28:05;;;;;;;2.47;0.50;;;23.40;44.10;;;;;;5092560;28;20419;-92
2021/11/02 05:57:04;;;;;;;3.42;0.30;;;23.40;42.20;;;;;;5054748;28;20408;-63
2021/11/02 05:59:46;;;;;;;2.67;0.38;;;23.40;42.20;;;;;;5054621;28;20746;-80
2021/11/02 06:05:08;;;;;;;3.00;0.50;;;23.50;42.20;;;;;;5053932;28;20392;-62
2021/11/02 06:29:15;;;;;;;3.47;0.40;;;23.30;43.60;;;;;;5054675;28;20388;-61
2021/11/02 06:31:51;;;;;;;4.60;0.50;;;23.30;43.90;;;;;;5036535;28;20390;-86
2021/11/02 07:15:36;;;;;;;4.40;0.90;;;23.20;45.00;;;;;;5052395;28;20423;-60
2021/11/02 07:20:36;;;;;;;7.28;0.90;;;23.10;43.30;;;;;;5052317;28;20962;-60
2021/11/02 07:23:16;;;;;;;4.47;0.68;;;23.10;43.50;;;;;;5052281;28;20396;-81
2021/11/02 07:25:51;;;;;;;5.60;0.80;;;23.10;43.60;;;;;;5066616;28;20914;-75
2021/11/02 08:47:12;;;;;;;1.00;0.40;;;23.00;41.30;;;;;;5051065;28;20740;-60
2021/11/02 08:49:45;;;;;;;1.13;0.50;;;23.00;41.30;;;;;;5050876;28;20377;-78
2021/11/02 08:52:12;;;;;;;0.70;0.40;;;23.00;41.40;;;;;;5050950;28;20389;-60
2021/11/02 08:54:40;;;;;;;1.02;0.40;;;23.00;41.30;;;;;;5050903;28;20490;-60
2021/11/02 08:57:06;;;;;;;0.95;0.40;;;23.00;41.30;;;;;;5050943;28;20826;-60
2021/11/02 08:59:33;;;;;;;1.20;0.50;;;23.00;41.30;;;;;;5050968;28;20751;-60
2021/11/02 09:02:04;;;;;;;1.25;0.40;;;23.00;41.20;;;;;;5050682;28;20462;-60
2021/11/02 09:04:38;;;;;;;1.20;0.43;;;23.00;41.20;;;;;;5050972;28;20412;-60
2021/11/02 09:07:06;;;;;;;1.10;0.40;;;23.00;41.20;;;;;;5050804;28;20797;-60
2021/11/02 09:09:43;;;;;;;0.80;0.38;;;23.00;41.20;;;;;;5050889;28;20382;-61
2021/11/02 09:12:12;;;;;;;0.80;0.30;;;23.00;41.20;;;;;;5050850;28;20389;-60
2021/11/02 09:14:39;;;;;;;0.77;0.30;;;23.00;41.00;;;;;;5050786;28;20393;-61
2021/11/02 09:17:07;;;;;;;0.60;0.38;;;23.00;41.20;;;;;;5050774;28;20393;-60
2021/11/02 09:19:37;;;;;;;0.85;0.40;;;23.00;41.10;;;;;;5050760;28;20389;-60
2021/11/02 09:22:08;;;;;;;0.70;0.30;;;23.00;41.40;;;;;;5032579;28;20405;-60
2021/11/02 09:24:35;;;;;;;0.82;0.43;;;23.00;41.20;;;;;;5067264;28;20408;-60
2021/11/02 09:27:02;;;;;;;0.63;0.28;;;22.90;41.70;;;;;;5069681;28;20436;-60
2021/11/02 09:29:28;;;;;;;0.80;0.43;;;23.00;41.20;;;;;;5036461;28;20751;-60
2021/11/02 09:31:58;;;;;;;0.60;0.30;;;23.00;41.20;;;;;;5053734;28;20389;-60
2021/11/02 09:34:24;;;;;;;0.65;0.38;;;22.90;41.20;;;;;;5054249;28;20402;-60
2021/11/02 09:36:57;;;;;;;1.40;0.40;;;22.90;41.00;;;;;;5054145;28;20786;-60
2021/11/02 09:39:26;;;;;;;0.80;0.40;;;22.90;40.90;;;;;;5054112;28;20876;-60
2021/11/02 09:42:10;;;;;;;0.70;0.30;;;22.90;40.80;;;;;;5053490;28;20464;-60
2021/11/02 09:44:49;;;;;;;0.88;0.40;;;22.90;40.70;;;;;;5054044;28;20417;-60
2021/11/02 09:47:25;;;;;;;0.70;0.40;;;22.90;40.80;;;;;;5054098;28;20887;-60
2021/11/02 09:50:19;;;;;;;0.90;0.40;;;22.90;40.70;;;;;;5053483;28;20501;-60
2021/11/02 09:53:22;;;;;;;0.60;0.30;;;22.90;40.70;;;;;;5053879;28;20455;-60
2021/11/02 09:56:12;;;;;;;0.75;0.38;;;22.90;40.90;;;;;;5053283;28;20504;-60
2021/11/02 09:59:08;;;;;;;0.75;0.40;;;22.90;41.10;;;;;;5053802;28;20377;-60
2021/11/02 10:02:03;;;;;;;0.60;0.30;;;22.90;41.00;;;;;;5053705;28;20397;-60
2021/11/02 10:04:56;;;;;;;0.80;0.40;;;23.00;41.00;;;;;;5053804;28;20902;-60
2021/11/02 10:07:36;;;;;;;1.00;0.40;;;22.90;41.10;;;;;;5068134;28;20385;-60
2021/11/02 10:10:26;;;;;;;0.68;0.38;;;22.90;41.20;;;;;;5053321;28;20395;-60
2021/11/02 10:13:06;;;;;;;0.82;0.45;;;23.00;41.20;;;;;;5053472;28;20382;-60
2021/11/02 10:15:41;;;;;;;0.90;0.35;;;22.90;41.00;;;;;;5053321;28;20409;-60
2021/11/02 10:18:27;;;;;;;0.40;0.30;;;22.90;41.00;;;;;;5053306;28;20393;-60
2021/11/02 10:21:14;;;;;;;0.63;0.30;;;22.90;41.20;;;;;;5053214;28;20398;-60
2021/11/02 10:24:18;;;;;;;0.60;0.40;;;22.90;41.10;;;;;;5052995;28;20425;-60
2021/11/02 10:27:02;;;;;;;0.85;0.40;;;22.90;41.00;;;;;;5068623;28;20887;-60
2021/11/02 10:29:49;;;;;;;1.20;0.32;;;22.90;41.10;;;;;;5056996;28;20417;-77
2021/11/02 10:32:16;;;;;;;1.80;0.40;;;22.90;41.10;;;;;;5056876;28;20401;-61
2021/11/02 10:34:50;;;;;;;0.80;0.40;;;22.90;41.10;;;;;;5053091;28;20386;-60
2021/11/02 10:37:51;;;;;;;1.00;0.40;;;22.90;41.00;;;;;;5033902;28;20397;-61
2021/11/02 10:40:25;;;;;;;0.70;0.40;;;22.90;41.00;;;;;;5034798;28;20445;-68
2021/11/02 10:43:09;;;;;;;0.75;0.40;;;22.90;41.10;;;;;;5051838;28;20396;-60
2021/11/02 10:45:36;;;;;;;0.60;0.30;;;22.90;41.10;;;;;;5052003;28;20386;-60
2021/11/02 10:48:07;;;;;;;0.68;0.30;;;23.00;41.10;;;;;;5051277;28;20471;-61
2021/11/02 10:50:38;;;;;;;1.30;0.43;;;23.00;41.10;;;;;;5051631;28;20398;-60
2021/11/02 10:53:09;;;;;;;0.80;0.30;;;23.00;41.00;;;;;;5033137;28;20390;-60
2021/11/02 10:55:50;;;;;;;0.63;0.30;;;23.00;41.20;;;;;;5033602;28;20421;-60
2021/11/02 10:58:44;;;;;;;0.52;0.30;;;23.00;41.20;;;;;;5051339;28;20386;-60
2021/11/02 11:01:12;;;;;;;0.65;0.30;;;23.10;41.50;;;;;;5051195;28;20458;-60
2021/11/02 11:03:40;;;;;;;0.77;0.32;;;23.10;41.60;;;;;;5051167;28;20947;-61
2021/11/02 11:06:11;;;;;;;1.35;0.40;;;23.10;41.60;;;;;;5032933;28;20883;-60
2021/11/02 11:08:43;;;;;;;0.63;0.30;;;23.10;41.70;;;;;;5067099;28;20420;-80
2021/11/02 11:11:14;;;;;;;0.50;0.30;;;23.10;41.60;;;;;;5078624;28;20448;-80
2021/11/02 11:13:43;;;;;;;0.65;0.30;;;23.10;41.80;;;;;;5077065;28;20405;-71
2021/11/02 11:16:16;;;;;;;0.70;0.40;;;23.10;41.60;;;;;;5078888;28;20425;-73
2021/11/02 11:18:53;;;;;;;0.55;0.30;;;23.20;41.80;;;;;;5077826;28;20384;-67
2021/11/02 11:21:26;;;;;;;0.82;0.30;;;23.20;41.80;;;;;;5077091;28;20411;-61
2021/11/02 11:24:04;;;;;;;0.82;0.40;;;23.30;41.80;;;;;;5078198;28;20470;-72
2021/11/02 11:26:31;;;;;;;0.68;0.22;;;23.30;41.80;;;;;;5061308;28;20444;-74
2021/11/02 11:29:02;;;;;;;1.00;0.33;;;23.30;41.90;;;;;;5075871;28;20394;-77
2021/11/02 11:31:29;;;;;;;0.60;0.28;;;23.30;41.80;;;;;;5079668;28;20435;-80
2021/11/02 11:34:01;;;;;;;0.47;0.20;;;23.30;41.70;;;;;;5080251;28;20386;-78
2021/11/02 11:36:31;;;;;;;0.50;0.20;;;23.30;41.50;;;;;;5080127;28;20407;-78
2021/11/02 11:38:59;;;;;;;0.60;0.20;;;23.30;41.60;;;;;;5076272;28;20438;-77
2021/11/02 11:41:27;;;;;;;0.70;0.30;;;23.40;42.10;;;;;;5079958;28;20402;-66
2021/11/02 11:43:55;;;;;;;1.02;0.30;;;23.40;41.60;;;;;;5080116;28;20378;-64
2021/11/02 11:46:24;;;;;;;0.70;0.20;;;23.40;41.40;;;;;;5079334;28;20384;-73
2021/11/02 11:48:54;;;;;;;0.60;0.30;;;23.40;41.50;;;;;;5058354;28;20475;-64
2021/11/02 11:51:22;;;;;;;0.45;0.30;;;23.40;41.30;;;;;;5087320;28;21007;-80
2021/11/02 11:53:55;;;;;;;0.75;0.30;;;23.50;41.20;;;;;;5071761;28;20421;-64
2021/11/02 11:56:22;;;;;;;0.60;0.30;;;23.70;43.00;;;;;;5071841;28;20920;-82
2021/11/02 11:58:54;;;;;;;0.93;0.30;;;24.00;42.80;;;;;;5079882;28;20391;-77
2021/11/02 12:01:46;;;;;;;2.03;0.50;;;24.30;42.00;;;;;;5085187;28;20463;-81
2021/11/02 12:04:27;;;;;;;2.78;0.40;;;24.40;42.20;;;;;;5056478;28;20419;-77
2021/11/02 12:07:22;;;;;;;0.80;0.30;;;24.50;41.60;;;;;;5062421;28;20766;-82
2021/11/02 12:09:48;;;;;;;2.88;0.30;;;24.60;41.20;;;;;;5090257;28;20388;-78
2021/11/02 12:12:15;;;;;;;1.95;0.50;;;24.70;40.70;;;;;;5063206;28;20403;-78
2021/11/02 12:14:51;;;;;;;2.90;0.40;;;24.70;41.00;;;;;;5061588;28;20394;-60
2021/11/02 12:17:24;;;;;;;2.13;0.38;;;24.80;40.40;;;;;;5079018;28;20439;-60
2021/11/02 12:20:09;;;;;;;1.30;0.40;;;24.80;40.50;;;;;;5077458;28;20388;-78
2021/11/02 12:22:49;;;;;;;1.30;0.30;;;24.80;40.60;;;;;;5057275;28;20410;-78
2021/11/02 12:25:28;;;;;;;1.20;0.30;;;24.80;40.50;;;;;;5083537;28;20403;-64
2021/11/02 12:27:56;;;;;;;0.68;0.30;;;25.00;40.60;;;;;;5095254;28;20774;-61
2021/11/02 12:30:23;;;;;;;1.52;0.30;;;25.00;40.70;;;;;;5056497;28;20395;-61
2021/11/02 12:32:55;;;;;;;1.83;0.32;;;25.00;40.60;;;;;;5059676;28;20400;-78
2021/11/02 12:35:38;;;;;;;2.63;0.43;;;25.10;40.20;;;;;;5081955;28;20408;-61
2021/11/02 12:38:05;;;;;;;0.70;0.30;;;25.10;40.20;;;;;;5075871;28;20395;-61
2021/11/02 12:40:35;;;;;;;0.90;0.25;;;25.10;40.30;;;;;;5079183;28;20397;-60
2021/11/02 12:43:04;;;;;;;0.80;0.30;;;25.10;40.30;;;;;;5075484;28;20382;-61
2021/11/02 12:45:40;;;;;;;0.85;0.32;;;25.20;40.30;;;;;;5077826;28;20392;-61
2021/11/02 12:48:10;;;;;;;1.85;0.30;;;25.20;40.10;;;;;;5076076;28;20849;-60
2021/11/02 12:50:38;;;;;;;2.03;0.60;;;25.20;40.20;;;;;;5078236;28;20944;-74
2021/11/02 12:53:06;;;;;;;1.52;0.30;;;25.10;40.30;;;;;;5078846;28;20385;-67
2021/11/02 12:55:34;;;;;;;0.88;0.35;;;25.10;40.20;;;;;;5083483;28;20616;-75
2021/11/02 12:58:16;;;;;;;0.40;0.20;;;25.10;40.30;;;;;;5079964;28;20380;-67
2021/11/02 13:01:04;;;;;;;1.52;0.30;;;25.10;40.20;;;;;;5082161;28;20377;-77
2021/11/02 13:03:35;;;;;;;0.73;0.30;;;25.20;40.20;;;;;;5062975;28;20402;-62
2021/11/02 13:06:06;;;;;;;0.93;0.30;;;25.20;40.30;;;;;;5085879;28;20391;-61
2021/11/02 13:08:53;;;;;;;1.30;0.20;;;25.20;40.30;;;;;;5067106;28;20400;-61
2021/11/02 13:11:25;;;;;;;1.15;0.30;;;25.20;40.30;;;;;;5083737;28;20389;-61
2021/11/02 13:14:12;;;;;;;0.60;0.20;;;25.10;40.20;;;;;;5082993;28;20908;-61
2021/11/02 13:16:59;;;;;;;0.50;0.20;;;25.10;40.20;;;;;;5083740;28;20425;-61
2021/11/02 13:19:56;;;;;;;0.50;0.20;;;25.10;40.30;;;;;;5083212;28;20450;-78
2021/11/02 13:22:24;;;;;;;0.60;0.20;;;25.00;40.20;;;;;;5036218;28;20762;-78
2021/11/02 13:25:06;;;;;;;0.57;0.20;;;25.00;40.30;;;;;;5054032;28;20390;-67
2021/11/02 13:27:42;;;;;;;0.63;0.22;;;25.00;40.30;;;;;;5028834;28;20385;-61
2021/11/02 13:30:28;;;;;;;0.60;0.20;;;25.00;40.30;;;;;;5047521;28;20385;-78
2021/11/02 13:33:12;;;;;;;0.98;0.20;;;24.90;40.30;;;;;;5050353;28;20864;-61
2021/11/02 13:35:56;;;;;;;0.98;0.30;;;24.80;40.30;;;;;;5050560;28;20421;-61
2021/11/02 13:38:33;;;;;;;0.55;0.30;;;24.80;40.30;;;;;;5052515;28;20393;-61
2021/11/02 13:41:23;;;;;;;0.68;0.30;;;24.80;40.40;;;;;;5051347;28;20393;-61
2021/11/02 13:43:57;;;;;;;5.68;0.40;;;24.80;40.30;;;;;;5049531;28;20389;-80
2021/11/02 13:46:37;;;;;;;3.93;0.40;;;24.70;40.20;;;;;;5048520;28;20403;-79
2021/11/02 13:49:08;;;;;;;3.70;0.38;;;24.80;40.20;;;;;;5052721;28;20393;-79
2021/11/02 13:51:35;;;;;;;1.98;0.30;;;24.70;40.00;;;;;;5053551;28;20472;-79
2021/11/02 13:54:02;;;;;;;2.10;0.30;;;24.70;40.00;;;;;;5052388;28;20386;-61
2021/11/02 13:56:35;;;;;;;1.33;0.38;;;24.70;39.90;;;;;;5051354;28;20795;-73
2021/11/02 13:59:03;;;;;;;0.90;0.30;;;24.60;40.00;;;;;;5038805;28;20395;-67
2021/11/02 14:01:52;;;;;;;2.30;0.30;;;24.60;40.00;;;;;;5053476;28;20397;-80
2021/11/02 14:04:32;;;;;;;1.33;0.30;;;24.60;40.00;;;;;;5052660;28;20407;-61
2021/11/02 14:07:19;;;;;;;0.80;0.30;;;24.60;40.00;;;;;;5054776;28;20455;-80
2021/11/02 14:09:55;;;;;;;0.95;0.20;;;24.60;40.00;;;;;;5050538;28;20385;-77
2021/11/02 14:12:53;;;;;;;1.00;0.50;;;24.50;40.10;;;;;;5054242;28;21085;-79
2021/11/02 14:15:27;;;;;;;0.90;0.30;;;24.50;40.10;;;;;;5024041;28;20416;-80
2021/11/02 14:18:07;;;;;;;1.27;0.38;;;24.50;40.00;;;;;;5055440;28;20417;-81
2021/11/02 14:20:33;;;;;;;1.20;0.30;;;24.50;40.10;;;;;;5037157;28;20407;-78
2021/11/02 14:23:02;;;;;;;0.90;0.40;;;24.40;40.00;;;;;;5084438;28;20385;-74
2021/11/02 14:25:40;;;;;;;0.73;0.30;;;24.40;40.10;;;;;;5048592;28;20904;-76
2021/11/02 14:28:08;;;;;;;1.60;0.40;;;24.40;40.10;;;;;;5081868;28;20978;-76
2021/11/02 14:30:37;;;;;;;0.90;0.33;;;24.30;40.10;;;;;;5079623;28;20952;-77
2021/11/02 14:33:07;;;;;;;0.90;0.40;;;24.30;40.10;;;;;;5062597;28;20394;-76
2021/11/02 14:35:38;;;;;;;0.73;0.20;;;24.30;40.10;;;;;;5086119;28;20735;-75
2021/11/02 14:38:10;;;;;;;1.20;0.40;;;24.30;40.10;;;;;;5081534;28;20390;-73
2021/11/02 14:40:38;;;;;;;0.87;0.30;;;24.30;40.10;;;;;;5085222;28;20926;-76
2021/11/02 14:43:19;;;;;;;1.33;0.47;;;24.30;40.10;;;;;;5076011;28;20386;-68
2021/11/02 14:45:57;;;;;;;1.00;0.45;;;24.30;40.00;;;;;;5079795;28;20388;-77
2021/11/02 14:48:32;;;;;;;0.75;0.30;;;24.30;40.10;;;;;;5082456;28;20433;-74
2021/11/02 14:51:13;;;;;;;0.85;0.32;;;24.30;40.10;;;;;;5082818;28;20384;-61
2021/11/02 14:53:43;;;;;;;1.40;0.40;;;24.20;40.30;;;;;;5081680;28;20398;-61
2021/11/02 14:56:14;;;;;;;7.40;0.70;;;24.20;40.30;;;;;;5080323;28;20423;-62
2021/11/02 15:01:06;;;;;;;3.08;0.55;;;24.00;41.00;;;;;;5081439;28;20489;-62
2021/11/02 15:03:33;;;;;;;3.30;0.55;;;24.00;40.70;;;;;;5076973;28;20398;-69
2021/11/02 15:06:15;;;;;;;4.10;0.57;;;24.10;41.40;;;;;;5072300;28;20435;-67
2021/11/02 15:08:44;;;;;;;5.07;0.57;;;24.10;41.30;;;;;;5087899;28;20382;-77
2021/11/02 15:11:15;;;;;;;3.05;0.50;;;24.10;41.40;;;;;;5075549;28;20430;-68
2021/11/02 15:13:56;;;;;;;3.38;0.40;;;24.10;41.50;;;;;;5069169;28;20386;-73
2021/11/02 15:16:24;;;;;;;5.40;0.52;;;24.10;42.30;;;;;;5062519;28;20943;-62
2021/11/02 15:19:03;;;;;;;3.22;0.43;;;24.10;42.60;;;;;;5047653;28;21194;-74
2021/11/02 15:21:42;;;;;;;3.72;0.50;;;24.20;41.70;;;;;;5056825;28;20444;-63
2021/11/02 15:24:29;;;;;;;3.30;0.43;;;24.10;42.30;;;;;;5079293;28;20435;-62
2021/11/02 15:27:06;;;;;;;2.20;0.50;;;24.20;42.80;;;;;;5079552;28;20383;-62
2021/11/02 15:29:39;;;;;;;8.48;0.65;;;24.30;43.00;;;;;;5078121;28;20417;-62
2021/11/02 15:32:14;;;;;;;5.40;0.65;;;24.20;43.00;;;;;;5075639;28;20378;-62
2021/11/02 15:34:43;;;;;;;6.68;0.80;;;24.20;42.50;;;;;;5081067;28;20481;-62
2021/11/02 15:37:12;;;;;;;2.63;0.90;;;24.30;42.50;;;;;;5061369;28;20447;-62
2021/11/02 15:39:40;;;;;;;7.38;1.70;;;24.40;42.70;;;;;;5060460;28;20395;-61
2021/11/02 15:42:32;;;;;;;7.00;1.77;;;24.50;42.60;;;;;;5076194;28;20399;-61
2021/11/02 15:45:04;;;;;;;6.10;1.30;;;24.60;43.20;;;;;;5080493;28;20969;-61
2021/11/02 15:47:34;;;;;;;8.70;1.40;;;24.50;43.70;;;;;;5059591;28;20890;-61
2021/11/02 15:50:17;;;;;;;10.57;1.73;;;24.50;43.90;;;;;;5078072;28;20376;-61
2021/11/02 15:52:43;;;;;;;8.13;1.60;;;24.50;44.30;;;;;;5090521;28;20418;-62
2021/11/02 15:55:18;;;;;;;7.15;1.48;;;24.50;44.30;;;;;;5072799;28;20862;-74
2021/11/02 15:57:55;;;;;;;6.95;1.27;;;24.50;44.30;;;;;;5072800;28;20394;-74
2021/11/02 16:00:44;;;;;;;15.77;1.60;;;24.50;44.60;;;;;;5090411;28;20447;-73
2021/11/02 16:03:14;;;;;;;18.00;1.67;;;24.50;45.20;;;;;;5068213;28;20465;-74
2021/11/02 16:05:42;;;;;;;14.90;2.03;;;24.50;44.70;;;;;;5076065;28;20387;-74
2021/11/02 16:08:19;;;;;;;11.27;1.30;;;24.50;44.90;;;;;;5080232;28;20396;-75
2021/11/02 16:11:02;;;;;;;10.05;1.00;;;24.50;44.60;;;;;;5095011;28;20386;-65
2021/11/02 16:13:31;;;;;;;8.95;1.23;;;24.50;44.10;;;;;;5061376;28;20896;-76
2021/11/02 16:16:01;;;;;;;7.60;1.45;;;24.50;44.40;;;;;;5079829;28;20412;-61
2021/11/02 16:18:32;;;;;;;12.50;1.43;;;24.50;44.70;;;;;;5058888;28;20485;-74
2021/11/02 16:21:03;;;;;;;9.98;1.20;;;24.60;44.80;;;;;;5049505;28;20830;-74
2021/11/02 16:23:44;;;;;;;10.10;1.20;;;24.50;44.50;;;;;;5039680;28;20401;-61
2021/11/02 16:26:28;;;;;;;12.23;1.67;;;24.50;44.60;;;;;;5039484;28;20397;-74
2021/11/02 16:29:05;;;;;;;11.55;1.50;;;24.50;44.30;;;;;;5040349;28;20382;-65
2021/11/02 16:31:31;;;;;;;10.77;1.40;;;24.50;44.20;;;;;;5039403;28;20464;-61
2021/11/02 16:33:58;;;;;;;13.30;1.50;;;24.50;43.70;;;;;;5038939;28;20387;-62
2021/11/02 16:36:29;;;;;;;16.30;1.80;;;24.50;43.50;;;;;;5044456;28;20430;-72
2021/11/02 16:38:59;;;;;;;15.27;2.03;;;24.50;43.90;;;;;;5045950;28;20810;-65
2021/11/02 16:41:31;;;;;;;13.73;1.40;;;24.60;44.10;;;;;;5044216;28;20397;-62
2021/11/02 16:44:06;;;;;;;14.15;1.40;;;24.60;43.30;;;;;;5043541;28;20918;-61
2021/11/02 16:46:33;;;;;;;7.63;1.30;;;24.60;45.30;;;;;;5044670;28;20402;-61
2021/11/02 16:49:03;;;;;;;9.90;1.60;;;24.60;44.10;;;;;;5040987;28;20438;-62
2021/11/02 16:51:50;;;;;;;13.93;2.40;;;24.60;44.20;;;;;;5043577;28;21317;-61
2021/11/02 16:54:23;;;;;;;26.05;5.53;;;24.60;44.60;;;;;;5042568;28;20444;-61
2021/11/02 16:57:18;;;;;;;23.38;5.65;;;24.70;45.30;;;;;;5044173;28;20454;-68
2021/11/02 17:00:05;;;;;;;28.90;7.70;;;24.80;44.80;;;;;;5037755;28;20765;-62
2021/11/02 17:02:37;;;;;;;34.67;8.70;;;24.90;44.60;;;;;;5040781;28;20384;-71
2021/11/02 17:05:24;;;;;;;44.93;10.47;;;24.90;45.20;;;;;;5030939;28;20392;-78
2021/11/02 17:07:52;;;;;;;55.23;12.97;;;25.00;45.00;;;;;;5042850;28;20392;-63
2021/11/02 17:10:24;;;;;;;64.93;16.40;;;25.00;46.30;;;;;;5028709;28;20391;-62
2021/11/02 17:13:06;;;;;;;66.53;17.02;;;25.00;47.00;;;;;;5031441;28;20403;-74
2021/11/02 17:15:50;;;;;;;72.13;17.85;;;25.10;46.60;;;;;;5044352;28;20412;-78
2021/11/02 17:18:18;;;;;;;69.22;17.17;;;25.10;46.90;;;;;;5041334;28;20402;-82
2021/11/02 17:20:59;;;;;;;81.90;20.50;;;25.10;47.20;;;;;;5042484;28;20426;-61
2021/11/02 17:23:25;;;;;;;56.90;16.38;;;25.20;46.80;;;;;;5038548;28;20433;-61
2021/11/02 17:25:52;;;;;;;61.28;17.42;;;25.10;46.00;;;;;;5043529;28;20419;-61
2021/11/02 17:28:19;;;;;;;53.67;14.73;;;25.10;45.90;;;;;;5041588;28;20442;-62
2021/11/02 17:30:45;;;;;;;58.67;16.90;;;25.10;45.80;;;;;;5043631;28;20435;-61
2021/11/02 17:33:12;;;;;;;55.50;15.50;;;25.00;46.50;;;;;;5040029;28;20494;-63
2021/11/02 17:35:41;;;;;;;73.00;19.42;;;25.10;46.40;;;;;;5040422;28;20398;-78
2021/11/02 17:38:07;;;;;;;72.80;24.40;;;25.20;46.50;;;;;;5043330;28;21112;-63
2021/11/02 17:40:35;;;;;;;86.30;27.15;;;25.20;46.80;;;;;;5045711;28;20378;-72
2021/11/02 17:43:03;;;;;;;79.87;22.50;;;25.30;46.60;;;;;;5047877;28;20404;-62
2021/11/02 17:45:30;;;;;;;68.38;19.23;;;25.30;51.20;;;;;;5036360;28;20381;-63
2021/11/02 17:47:57;;;;;;;78.20;26.02;;;25.50;49.60;;;;;;5033631;28;20398;-62
2021/11/02 17:50:32;;;;;;;67.55;20.92;;;25.50;50.10;;;;;;5033255;28;20461;-62
2021/11/02 17:52:59;;;;;;;44.60;15.57;;;25.60;49.00;;;;;;5033503;28;20379;-62
2021/11/02 17:55:26;;;;;;;44.38;15.93;;;25.60;46.50;;;;;;5032713;28;20419;-62
2021/11/02 17:57:54;;;;;;;51.25;15.55;;;25.50;46.50;;;;;;5032471;28;20395;-61
2021/11/02 18:00:26;;;;;;;40.90;15.10;;;25.40;47.10;;;;;;5039148;28;20382;-80
2021/11/02 18:02:54;;;;;;;40.75;13.10;;;25.30;47.20;;;;;;5043299;28;20493;-62
2021/11/02 18:05:28;;;;;;;40.00;13.70;;;25.20;47.50;;;;;;5041399;28;20384;-62
2021/11/02 18:08:02;;;;;;;35.97;13.30;;;25.20;47.40;;;;;;5028534;28;20424;-77
2021/11/02 18:10:29;;;;;;;28.55;11.25;;;25.10;47.10;;;;;;5012825;28;20431;-74
2021/11/02 18:12:56;;;;;;;30.30;11.10;;;25.00;46.70;;;;;;5016291;28;20907;-75
2021/11/02 18:15:22;;;;;;;31.35;11.10;;;24.90;46.50;;;;;;5016578;28;20424;-65